Time;durP1;ratioP1;P1;durP2;ratioP2;P2;SDS_P1;SDS_P2;PMS_P1;PMS_P2;Temp;Humidity;BMP_temperature;BMP_pressure;BME280_temperature;BME280_humidity;BME280_pressure;Samples;Min_cycle;Max_cycle;Signal;HPM_P1;HPM_P2
2022/01/22 00:03:44;;;;;;;0.40;0.40;;;17.50;62.40;;;;;;10513348;28;20690;-69
2022/01/22 00:09:08;;;;;;;0.63;0.30;;;17.50;62.40;;;;;;10528604;28;20220;-69
2022/01/22 00:14:30;;;;;;;0.30;0.23;;;17.50;62.40;;;;;;10513222;28;20198;-69
2022/01/22 00:19:52;;;;;;;0.60;0.50;;;17.50;62.40;;;;;;10511725;28;20564;-69
2022/01/22 00:25:17;;;;;;;0.70;0.50;;;17.40;62.40;;;;;;10515544;28;20215;-68
2022/01/22 00:30:40;;;;;;;0.60;0.50;;;17.40;62.40;;;;;;10518396;28;20204;-69
2022/01/22 00:36:02;;;;;;;0.83;0.50;;;17.50;62.40;;;;;;10529223;28;20674;-69
2022/01/22 00:41:25;;;;;;;1.40;0.50;;;17.40;62.40;;;;;;10512113;28;20706;-68
2022/01/22 00:46:48;;;;;;;1.77;0.63;;;17.40;62.40;;;;;;10512499;28;20568;-69
2022/01/22 00:52:10;;;;;;;1.33;0.30;;;17.40;62.40;;;;;;10512900;28;20561;-69
2022/01/22 00:57:33;;;;;;;0.30;0.30;;;17.40;62.40;;;;;;10513013;28;20196;-69
2022/01/22 01:02:55;;;;;;;0.50;0.30;;;17.40;62.40;;;;;;10513594;28;20215;-69
2022/01/22 01:08:17;;;;;;;0.63;0.40;;;17.40;62.40;;;;;;10515133;28;20219;-69
2022/01/22 01:13:45;;;;;;;0.77;0.40;;;17.40;62.50;;;;;;10506412;28;20184;-68
2022/01/22 01:36:12;;;;;;;0.50;0.43;;;17.40;62.50;;;;;;10512884;28;20199;-68
2022/01/22 01:41:43;;;;;;;0.40;0.30;;;17.40;62.50;;;;;;10513000;28;20216;-69
2022/01/22 01:47:09;;;;;;;0.20;0.20;;;17.40;62.50;;;;;;10511692;28;20198;-69
2022/01/22 01:52:38;;;;;;;0.17;0.17;;;17.40;62.50;;;;;;10512353;28;20200;-69
2022/01/22 01:58:00;;;;;;;0.60;0.40;;;17.40;62.50;;;;;;10512714;28;20189;-69
2022/01/22 02:03:24;;;;;;;0.30;0.30;;;17.40;62.50;;;;;;10506811;28;20242;-69
2022/01/22 02:08:46;;;;;;;0.57;0.30;;;17.40;62.60;;;;;;10520654;28;20215;-69
2022/01/22 02:23:30;;;;;;;0.67;0.40;;;17.40;62.50;;;;;;10520926;28;20663;-69
2022/01/22 02:25:34;;;;;;;0.50;0.30;;;17.40;62.60;;;;;;10518563;28;20199;-69
2022/01/22 02:31:02;;;;;;;0.97;0.50;;;17.40;62.60;;;;;;10519397;28;20208;-69
2022/01/22 02:36:29;;;;;;;0.50;0.30;;;17.40;62.60;;;;;;10519365;28;20671;-69
2022/01/22 02:41:52;;;;;;;1.30;0.30;;;17.40;62.60;;;;;;10476679;28;20209;-69
2022/01/22 02:47:16;;;;;;;0.60;0.30;;;17.40;62.70;;;;;;10475234;28;20247;-68
2022/01/22 02:52:38;;;;;;;0.30;0.20;;;17.40;62.70;;;;;;10462748;28;20564;-69
2022/01/22 02:58:01;;;;;;;0.20;0.20;;;17.40;62.70;;;;;;10457564;28;20201;-69
2022/01/22 03:03:23;;;;;;;0.63;0.27;;;17.40;62.60;;;;;;10458094;28;20224;-69
2022/01/22 03:08:47;;;;;;;0.67;0.30;;;17.40;62.70;;;;;;10473340;28;20223;-69
2022/01/22 03:14:58;;;;;;;0.47;0.30;;;17.40;62.70;;;;;;10497574;28;20193;-69
2022/01/22 03:20:33;;;;;;;0.83;0.40;;;17.40;62.70;;;;;;10496422;28;20226;-69
2022/01/22 03:31:37;;;;;;;0.60;0.30;;;17.40;62.70;;;;;;10537508;28;20196;-69
2022/01/22 03:36:59;;;;;;;0.73;0.33;;;17.30;62.70;;;;;;10521811;28;20224;-69
2022/01/22 03:42:22;;;;;;;0.57;0.20;;;17.40;62.70;;;;;;10527136;28;20723;-69
2022/01/22 03:47:46;;;;;;;0.37;0.20;;;17.40;62.70;;;;;;10537199;28;20195;-68
2022/01/22 03:53:08;;;;;;;0.60;0.10;;;17.40;62.70;;;;;;10536967;28;20195;-69
2022/01/22 03:58:31;;;;;;;0.13;0.10;;;17.40;62.70;;;;;;10536564;28;20222;-69
2022/01/22 04:04:00;;;;;;;0.93;0.33;;;17.40;62.70;;;;;;10527855;28;20310;-69
2022/01/22 04:09:25;;;;;;;0.60;0.20;;;17.40;62.70;;;;;;10534164;28;20214;-67
2022/01/22 04:14:52;;;;;;;0.27;0.20;;;17.40;62.70;;;;;;10532313;28;20237;-69
2022/01/22 04:26:03;;;;;;;0.30;0.17;;;17.40;62.70;;;;;;10511696;28;20188;-68
2022/01/22 04:31:25;;;;;;;0.30;0.23;;;17.30;62.70;;;;;;10536743;28;20285;-69
2022/01/22 04:36:48;;;;;;;0.57;0.23;;;17.40;62.80;;;;;;10537090;28;20200;-69
2022/01/22 04:42:10;;;;;;;0.27;0.20;;;17.40;62.70;;;;;;10518536;28;20219;-69
2022/01/22 04:47:43;;;;;;;0.37;0.20;;;17.30;62.70;;;;;;10536044;28;20575;-69
2022/01/22 04:58:42;;;;;;;1.20;0.20;;;17.40;62.80;;;;;;10460967;28;20212;-69
2022/01/22 05:04:04;;;;;;;0.80;0.30;;;17.40;62.80;;;;;;10528978;28;20219;-69
2022/01/22 05:09:28;;;;;;;0.30;0.20;;;17.40;62.80;;;;;;10533464;28;20211;-68
2022/01/22 05:14:50;;;;;;;0.63;0.40;;;17.30;62.70;;;;;;10502499;28;20192;-69
2022/01/22 05:20:18;;;;;;;0.40;0.10;;;17.40;62.90;;;;;;10492678;28;20243;-69
2022/01/22 05:25:46;;;;;;;0.50;0.17;;;17.30;63.40;;;;;;10506123;28;20184;-69
2022/01/22 05:31:23;;;;;;;0.40;0.20;;;17.40;62.90;;;;;;10534879;28;20260;-69
2022/01/22 05:37:02;;;;;;;1.13;0.30;;;17.30;62.80;;;;;;10495683;28;20216;-69
2022/01/22 05:42:25;;;;;;;0.17;0.17;;;17.30;62.70;;;;;;10500100;22;20243;-64
2022/01/22 05:47:47;;;;;;;0.10;0.10;;;17.40;62.80;;;;;;10464918;28;20204;-64
2022/01/22 05:53:20;;;;;;;0.93;0.23;;;17.40;62.70;;;;;;10457701;28;20212;-64
2022/01/22 06:04:23;;;;;;;0.67;0.30;;;17.40;62.70;;;;;;10458361;28;20212;-64
2022/01/22 06:10:02;;;;;;;0.20;0.20;;;17.40;62.70;;;;;;10462047;28;20236;-64
2022/01/22 06:15:26;;;;;;;0.40;0.20;;;17.50;62.70;;;;;;10457564;28;20389;-64
2022/01/22 06:20:48;;;;;;;0.53;0.23;;;17.50;62.70;;;;;;10476144;28;20220;-64
2022/01/22 06:26:11;;;;;;;0.10;0.10;;;17.50;62.70;;;;;;10457768;28;20193;-64
2022/01/22 06:31:35;;;;;;;0.40;0.20;;;17.40;62.70;;;;;;10498369;28;20209;-64
2022/01/22 06:36:57;;;;;;;0.10;0.10;;;17.50;62.80;;;;;;10499578;28;20658;-64
2022/01/22 06:42:19;;;;;;;0.50;0.20;;;17.40;62.70;;;;;;10490338;28;20705;-64
2022/01/22 06:47:43;;;;;;;0.63;0.17;;;17.40;62.70;;;;;;10497662;28;20193;-64
2022/01/22 06:53:05;;;;;;;0.30;0.10;;;17.40;62.80;;;;;;10496602;28;20204;-64
2022/01/22 06:58:27;;;;;;;0.20;0.20;;;17.40;62.80;;;;;;10497542;28;20239;-64
2022/01/22 07:03:51;;;;;;;0.10;0.10;;;17.50;62.90;;;;;;10497378;28;20208;-64
2022/01/22 07:09:13;;;;;;;0.10;0.10;;;17.40;62.80;;;;;;10495277;28;20220;-64
2022/01/22 07:14:35;;;;;;;2.13;0.33;;;17.40;62.80;;;;;;10496809;28;20204;-64
2022/01/22 07:19:59;;;;;;;0.10;0.10;;;17.40;62.80;;;;;;10495609;28;20589;-64
2022/01/22 07:25:21;;;;;;;0.63;0.20;;;17.50;62.90;;;;;;10461983;28;20197;-64
2022/01/22 07:30:44;;;;;;;0.20;0.10;;;17.40;62.80;;;;;;10492271;28;20940;-64
2022/01/22 07:36:08;;;;;;;0.83;0.20;;;17.50;62.80;;;;;;10482635;28;20300;-65
2022/01/22 07:41:30;;;;;;;0.20;0.10;;;17.50;62.90;;;;;;10488965;28;20216;-64
2022/01/22 07:46:52;;;;;;;0.23;0.20;;;17.50;62.80;;;;;;10496142;28;20204;-64
2022/01/22 07:52:16;;;;;;;0.10;0.10;;;17.50;62.90;;;;;;10496384;28;20220;-64
2022/01/22 07:57:38;;;;;;;0.17;0.10;;;17.50;62.90;;;;;;10494154;28;20201;-64
2022/01/22 08:03:00;;;;;;;0.43;0.20;;;17.50;62.90;;;;;;10464872;28;20216;-64
2022/01/22 08:08:24;;;;;;;0.10;0.10;;;17.40;62.90;;;;;;10486772;28;20212;-64
2022/01/22 08:13:46;;;;;;;0.20;0.20;;;17.40;62.90;;;;;;10494281;28;20216;-64
2022/01/22 08:19:08;;;;;;;0.10;0.10;;;17.50;63.00;;;;;;10492223;28;20227;-65
2022/01/22 08:24:32;;;;;;;0.10;0.10;;;17.50;63.00;;;;;;10471934;28;20220;-65
2022/01/22 08:29:55;;;;;;;0.40;0.20;;;17.50;63.00;;;;;;10473242;28;20213;-64
2022/01/22 08:40:59;;;;;;;0.73;0.20;;;17.50;62.90;;;;;;10469697;28;20307;-66
2022/01/22 08:46:21;;;;;;;0.13;0.13;;;17.50;63.00;;;;;;10465119;28;20188;-65
2022/01/22 08:51:43;;;;;;;0.20;0.20;;;17.50;63.00;;;;;;10460809;28;20220;-64
2022/01/22 08:57:07;;;;;;;0.20;0.20;;;17.50;63.00;;;;;;10486464;28;20205;-64
2022/01/22 09:02:29;;;;;;;2.40;0.10;;;17.50;63.00;;;;;;10452078;28;20717;-63
2022/01/22 09:07:52;;;;;;;0.47;0.23;;;17.50;62.90;;;;;;10451018;28;20574;-64
2022/01/22 09:13:15;;;;;;;4.35;1.38;;;17.40;62.50;;;;;;10450840;28;20425;-63
2022/01/22 09:18:37;;;;;;;3.10;1.90;;;18.10;60.20;;;;;;10451937;28;20216;-65
2022/01/22 09:23:59;;;;;;;3.10;1.80;;;17.70;59.50;;;;;;10471756;28;20223;-64
2022/01/22 09:29:23;;;;;;;5.23;1.77;;;17.40;58.30;;;;;;10471533;28;20209;-65
2022/01/22 09:34:45;;;;;;;1.97;1.60;;;17.40;59.10;;;;;;10494826;28;20207;-64
2022/01/22 09:40:09;;;;;;;3.97;1.90;;;17.30;60.20;;;;;;10489060;28;20216;-65
2022/01/22 09:45:33;;;;;;;5.67;1.90;;;17.40;61.00;;;;;;10457787;28;20217;-64
2022/01/22 09:50:55;;;;;;;3.97;2.23;;;17.40;61.20;;;;;;10450528;28;20221;-65
2022/01/22 09:56:23;;;;;;;5.63;2.43;;;17.40;61.10;;;;;;10448978;28;20204;-65
2022/01/22 10:01:47;;;;;;;4.17;1.80;;;17.40;61.10;;;;;;10465766;28;20213;-65
2022/01/22 10:07:17;;;;;;;3.17;1.67;;;17.30;60.80;;;;;;10450285;28;20696;-64
2022/01/22 10:12:44;;;;;;;3.90;1.80;;;17.40;61.20;;;;;;10459927;28;20214;-64
2022/01/22 10:18:08;;;;;;;6.87;1.67;;;17.40;61.40;;;;;;10450476;28;20217;-66
2022/01/22 10:23:37;;;;;;;3.37;1.70;;;17.40;61.50;;;;;;10469556;28;20220;-66
2022/01/22 10:29:10;;;;;;;5.60;1.53;;;17.40;61.40;;;;;;10496255;28;20213;-65
2022/01/22 10:34:35;;;;;;;2.33;1.37;;;17.30;61.00;;;;;;10458275;28;20193;-64
2022/01/22 10:40:19;;;;;;;2.90;1.47;;;17.30;61.10;;;;;;10489458;28;20224;-65
2022/01/22 10:45:41;;;;;;;4.97;1.23;;;17.40;61.30;;;;;;10496224;28;20212;-65
2022/01/22 10:51:08;;;;;;;2.10;1.07;;;17.40;61.60;;;;;;10495659;28;20220;-66
2022/01/22 10:56:32;;;;;;;3.17;1.20;;;17.40;61.70;;;;;;10475289;28;20200;-65
2022/01/22 11:01:56;;;;;;;3.37;1.30;;;17.40;61.80;;;;;;10477399;28;20721;-65
2022/01/22 11:07:21;;;;;;;1.50;0.80;;;17.40;61.80;;;;;;10467436;28;20208;-66
2022/01/22 11:12:43;;;;;;;2.40;1.03;;;17.40;61.70;;;;;;10457249;28;20205;-66
2022/01/22 11:18:08;;;;;;;2.43;1.00;;;17.40;61.80;;;;;;10476332;28;21850;-66
2022/01/22 11:23:34;;;;;;;1.77;0.90;;;17.40;61.90;;;;;;10497118;28;20669;-66
2022/01/22 11:28:57;;;;;;;2.35;0.90;;;17.50;61.90;;;;;;10492797;28;20426;-67
2022/01/22 11:34:24;;;;;;;3.03;0.67;;;18.40;58.90;;;;;;10495315;28;20701;-64
2022/01/22 11:44:50;;;;;;;2.30;0.67;;;17.60;61.10;;;;;;10462778;22;20232;-70
2022/01/22 11:50:13;;;;;;;3.27;0.90;;;17.60;60.80;;;;;;10454239;28;20244;-70
2022/01/22 11:55:35;;;;;;;5.07;0.80;;;17.50;61.10;;;;;;10424130;28;20425;-70
2022/01/22 12:00:59;;;;;;;1.95;0.65;;;18.50;58.50;;;;;;10430720;28;20447;-70
2022/01/22 12:06:21;;;;;;;2.63;0.80;;;18.00;59.50;;;;;;10446099;28;20204;-70
2022/01/22 12:18:10;;;;;;;1.70;0.60;;;18.30;59.40;;;;;;10405798;28;20264;-69
2022/01/22 12:23:59;;;;;;;2.00;0.60;;;17.80;61.00;;;;;;10423878;28;20217;-69
2022/01/22 12:29:40;;;;;;;0.53;0.27;;;17.60;61.30;;;;;;10399987;28;20193;-69
2022/01/22 12:35:14;;;;;;;1.10;0.40;;;17.60;61.70;;;;;;10414358;28;20660;-70
2022/01/22 12:40:36;;;;;;;0.80;0.40;;;17.50;61.30;;;;;;10431690;28;20224;-69
2022/01/22 12:46:01;;;;;;;0.30;0.30;;;17.40;61.90;;;;;;10450775;28;20220;-71
2022/01/22 12:51:27;;;;;;;1.53;0.40;;;17.40;61.90;;;;;;10452117;28;20224;-70
2022/01/22 12:56:51;;;;;;;0.90;0.40;;;17.50;61.70;;;;;;10452726;28;20208;-70
2022/01/22 13:02:13;;;;;;;0.33;0.23;;;17.40;61.70;;;;;;10444527;28;20274;-70
2022/01/22 13:07:41;;;;;;;0.40;0.23;;;17.40;61.40;;;;;;10417034;28;20677;-70
2022/01/22 13:13:06;;;;;;;0.73;0.30;;;17.40;61.10;;;;;;10423796;28;20210;-70
2022/01/22 13:18:43;;;;;;;0.30;0.30;;;17.40;60.70;;;;;;10434674;28;20204;-70
2022/01/22 13:24:08;;;;;;;0.23;0.20;;;17.40;60.20;;;;;;10411315;28;20689;-70
2022/01/22 13:29:33;;;;;;;0.20;0.20;;;17.30;60.30;;;;;;10410149;28;20234;-70
2022/01/22 13:35:09;;;;;;;0.53;0.20;;;17.30;60.40;;;;;;10410217;28;20275;-69
2022/01/22 13:40:45;;;;;;;0.83;0.40;;;17.40;60.50;;;;;;10409546;28;20221;-70
2022/01/22 13:51:48;;;;;;;0.70;0.40;;;17.30;60.20;;;;;;10437673;28;20209;-70
2022/01/22 13:57:15;;;;;;;0.30;0.30;;;17.30;59.50;;;;;;10450926;28;20209;-71
2022/01/22 14:03:02;;;;;;;0.40;0.40;;;17.30;59.70;;;;;;10450435;28;20231;-70
2022/01/22 14:08:30;;;;;;;0.47;0.47;;;17.30;60.30;;;;;;10438290;28;20198;-70
2022/01/22 14:14:05;;;;;;;1.17;0.50;;;17.30;60.40;;;;;;10439571;28;20220;-70
2022/01/22 14:19:30;;;;;;;0.60;0.23;;;17.30;60.10;;;;;;10442380;28;20206;-70
2022/01/22 14:25:09;;;;;;;0.47;0.37;;;17.30;59.90;;;;;;10439120;28;20209;-70
2022/01/22 14:30:44;;;;;;;0.40;0.40;;;17.30;58.90;;;;;;10439298;28;20220;-70
2022/01/22 14:36:07;;;;;;;0.40;0.40;;;17.30;60.40;;;;;;10437966;28;20657;-70
2022/01/22 14:47:15;;;;;;;0.53;0.37;;;17.30;60.70;;;;;;10443204;28;20527;-71
2022/01/22 14:52:39;;;;;;;1.90;0.40;;;17.40;60.90;;;;;;10428820;28;20206;-70
2022/01/22 14:58:01;;;;;;;0.60;0.40;;;17.30;60.70;;;;;;10443170;28;20428;-70
2022/01/22 15:03:25;;;;;;;0.50;0.30;;;17.50;60.50;;;;;;10427922;28;20229;-70
2022/01/22 15:08:47;;;;;;;2.10;0.60;;;17.40;60.60;;;;;;10419392;28;20351;-70
2022/01/22 15:14:09;;;;;;;2.83;0.63;;;17.40;60.80;;;;;;10433486;28;20209;-70
2022/01/22 15:19:33;;;;;;;2.73;0.73;;;17.50;61.10;;;;;;10430336;28;20186;-70
2022/01/22 15:24:56;;;;;;;1.97;0.50;;;17.50;61.20;;;;;;10438066;28;20209;-70
2022/01/22 15:30:24;;;;;;;1.73;0.60;;;17.50;61.30;;;;;;10443609;28;20911;-70
2022/01/22 15:35:47;;;;;;;0.70;0.50;;;18.30;59.10;;;;;;10449605;28;20196;-69
2022/01/22 15:41:09;;;;;;;0.33;0.30;;;17.80;60.70;;;;;;10414968;28;20229;-71
2022/01/22 15:46:31;;;;;;;0.50;0.40;;;17.60;61.10;;;;;;10442793;28;20720;-71
2022/01/22 15:51:57;;;;;;;1.30;0.53;;;17.50;61.40;;;;;;10454955;28;20619;-68
2022/01/22 15:57:20;;;;;;;4.40;0.60;;;17.50;61.90;;;;;;10422718;28;20213;-68
2022/01/22 16:02:43;;;;;;;1.30;0.53;;;17.50;62.10;;;;;;10446283;28;20672;-68
2022/01/22 16:08:07;;;;;;;1.47;0.50;;;17.50;62.10;;;;;;10431750;28;20193;-69
2022/01/22 16:13:29;;;;;;;0.93;0.40;;;17.50;62.30;;;;;;10452068;28;20232;-69
2022/01/22 16:18:52;;;;;;;1.13;0.60;;;17.50;62.40;;;;;;10436993;28;20199;-70
2022/01/22 16:24:16;;;;;;;0.83;0.40;;;17.50;62.40;;;;;;10450648;28;20217;-69
2022/01/22 16:29:38;;;;;;;1.30;0.40;;;17.50;62.40;;;;;;10452373;28;20197;-68
2022/01/22 16:35:00;;;;;;;3.13;0.43;;;17.60;62.50;;;;;;10451494;28;20205;-68
2022/01/22 16:40:25;;;;;;;1.13;0.60;;;17.60;62.60;;;;;;10447476;28;20592;-68
2022/01/22 16:46:05;;;;;;;4.57;0.60;;;17.60;62.60;;;;;;10447542;28;20221;-68
2022/01/22 16:51:34;;;;;;;0.67;0.30;;;17.60;62.70;;;;;;10448667;28;20306;-68
2022/01/22 16:57:03;;;;;;;1.03;0.30;;;17.60;62.70;;;;;;10415675;28;20292;-69
2022/01/22 17:02:26;;;;;;;2.80;0.63;;;17.60;63.30;;;;;;10442155;28;20221;-69
2022/01/22 17:07:58;;;;;;;0.87;0.57;;;17.60;62.80;;;;;;10412358;28;20200;-69
2022/01/22 17:19:01;;;;;;;1.00;0.50;;;17.60;62.80;;;;;;10425167;28;20248;-71
2022/01/22 17:24:23;;;;;;;0.87;0.30;;;17.60;62.90;;;;;;10446824;28;20223;-71
2022/01/22 17:29:51;;;;;;;1.33;0.50;;;17.50;63.00;;;;;;10438692;28;20194;-71
2022/01/22 17:35:13;;;;;;;0.93;0.50;;;17.60;63.10;;;;;;10446884;28;20184;-71
2022/01/22 17:45:43;;;;;;;0.50;0.30;;;17.50;63.00;;;;;;10446577;28;20332;-71
2022/01/22 17:51:06;;;;;;;0.93;0.50;;;17.50;63.10;;;;;;10446118;28;20201;-71
2022/01/22 17:56:29;;;;;;;1.20;0.33;;;17.50;63.00;;;;;;10448078;28;20193;-71
2022/01/22 18:01:52;;;;;;;0.97;0.50;;;17.50;63.00;;;;;;10448335;28;20232;-71
2022/01/22 18:07:15;;;;;;;0.77;0.37;;;17.50;63.60;;;;;;10449788;28;20224;-73
2022/01/22 18:12:37;;;;;;;1.27;0.50;;;17.50;63.10;;;;;;10450669;28;20216;-71
2022/01/22 18:18:00;;;;;;;1.13;0.43;;;17.50;63.10;;;;;;10411155;28;20201;-72
2022/01/22 18:23:23;;;;;;;0.37;0.27;;;17.50;63.10;;;;;;10405479;28;20272;-71
2022/01/22 18:28:45;;;;;;;0.67;0.53;;;17.50;63.20;;;;;;10440962;28;20197;-71
2022/01/22 18:34:09;;;;;;;0.77;0.40;;;17.50;63.20;;;;;;10446182;28;20209;-72
2022/01/22 18:39:31;;;;;;;0.50;0.40;;;17.50;63.20;;;;;;10413578;28;20212;-72
2022/01/22 18:44:55;;;;;;;2.30;0.70;;;17.50;63.20;;;;;;10446358;28;20876;-73
2022/01/22 18:50:18;;;;;;;1.03;0.50;;;17.50;63.20;;;;;;10451119;28;20283;-72
2022/01/22 18:55:40;;;;;;;1.90;0.60;;;17.60;63.20;;;;;;10450279;28;20197;-72
2022/01/22 19:01:05;;;;;;;2.17;0.70;;;17.50;63.10;;;;;;10468096;28;20235;-72
2022/01/22 19:06:29;;;;;;;1.23;0.53;;;17.50;63.10;;;;;;10487448;28;20343;-71
2022/01/22 19:11:51;;;;;;;0.60;0.50;;;17.50;63.10;;;;;;10449449;28;20691;-71
2022/01/22 19:17:14;;;;;;;0.97;0.57;;;17.50;63.10;;;;;;10446443;28;20727;-72
2022/01/22 19:22:45;;;;;;;1.50;0.70;;;17.50;63.10;;;;;;10446964;28;20213;-71
2022/01/22 19:28:08;;;;;;;1.03;0.50;;;17.60;63.20;;;;;;10447430;28;21282;-71
2022/01/22 19:33:31;;;;;;;1.27;0.60;;;17.50;63.10;;;;;;10445712;28;20292;-71
2022/01/22 19:38:56;;;;;;;2.93;0.50;;;17.50;63.10;;;;;;10449821;28;20214;-71
2022/01/22 19:44:24;;;;;;;1.77;0.60;;;17.50;63.10;;;;;;10443999;28;20225;-71
2022/01/22 19:49:46;;;;;;;1.30;0.50;;;17.50;63.10;;;;;;10444982;28;20194;-72
2022/01/22 19:55:10;;;;;;;0.80;0.50;;;17.50;63.10;;;;;;10444861;28;20223;-72
2022/01/22 20:00:32;;;;;;;1.00;0.50;;;17.50;63.00;;;;;;10443727;28;20193;-72
2022/01/22 20:05:55;;;;;;;0.77;0.40;;;17.50;63.10;;;;;;10443589;28;20672;-71
2022/01/22 20:11:18;;;;;;;1.23;0.70;;;17.50;63.10;;;;;;10442568;28;20691;-72
2022/01/22 20:16:41;;;;;;;1.20;0.67;;;17.50;63.10;;;;;;10442411;28;20197;-71
2022/01/22 20:22:04;;;;;;;0.77;0.50;;;17.50;63.10;;;;;;10448140;28;20213;-71
2022/01/22 20:27:27;;;;;;;1.20;0.60;;;17.50;63.10;;;;;;10447006;28;20216;-72
2022/01/22 20:32:51;;;;;;;0.57;0.33;;;17.50;63.10;;;;;;10449180;28;20235;-71
2022/01/22 20:38:14;;;;;;;1.17;0.50;;;17.50;63.10;;;;;;10449811;28;20208;-71
2022/01/22 20:43:39;;;;;;;1.47;0.50;;;17.50;63.10;;;;;;10454073;28;20219;-71
2022/01/22 20:49:02;;;;;;;0.77;0.50;;;17.50;63.10;;;;;;10450955;28;20238;-71
2022/01/22 20:54:24;;;;;;;0.50;0.40;;;17.50;63.10;;;;;;10457703;28;20220;-72
2022/01/22 20:59:47;;;;;;;1.07;0.50;;;17.50;63.00;;;;;;10461767;28;20614;-71
2022/01/22 21:05:10;;;;;;;1.43;0.70;;;17.50;63.00;;;;;;10493276;28;20220;-71
2022/01/22 21:10:33;;;;;;;1.23;0.80;;;17.50;63.10;;;;;;10482038;28;20201;-70
2022/01/22 21:15:57;;;;;;;1.73;0.90;;;17.50;63.10;;;;;;10458971;28;20188;-71
2022/01/22 21:21:21;;;;;;;1.50;0.80;;;17.50;63.10;;;;;;10465378;28;20221;-71
2022/01/22 21:26:47;;;;;;;0.60;0.50;;;17.50;63.10;;;;;;10462952;28;20215;-71
2022/01/22 21:32:11;;;;;;;1.63;0.60;;;17.50;63.00;;;;;;10452756;28;20230;-71
2022/01/22 21:37:55;;;;;;;0.90;0.63;;;17.50;63.10;;;;;;10451810;28;20271;-71
2022/01/22 21:43:16;;;;;;;0.50;0.43;;;17.50;63.10;;;;;;10454843;28;20220;-71
2022/01/22 21:48:42;;;;;;;0.63;0.43;;;17.50;63.10;;;;;;10428353;28;20186;-70
2022/01/22 21:54:05;;;;;;;1.97;0.80;;;17.50;63.10;;;;;;10449472;28;20632;-70
2022/01/22 21:59:27;;;;;;;0.77;0.60;;;17.50;63.10;;;;;;10459889;28;20193;-70
2022/01/22 22:04:51;;;;;;;0.80;0.50;;;17.50;63.10;;;;;;10455697;28;20719;-71
2022/01/22 22:10:13;;;;;;;0.77;0.53;;;17.50;63.10;;;;;;10448904;28;20208;-71
2022/01/22 22:15:39;;;;;;;1.23;0.60;;;17.50;63.10;;;;;;10448219;28;20189;-71
2022/01/22 22:21:03;;;;;;;0.80;0.57;;;17.50;63.10;;;;;;10460570;28;20216;-71
2022/01/22 22:26:25;;;;;;;0.87;0.50;;;17.40;63.10;;;;;;10467980;28;20225;-71
2022/01/22 22:31:49;;;;;;;0.40;0.40;;;17.50;63.10;;;;;;10415796;28;20220;-71
2022/01/22 22:37:12;;;;;;;0.67;0.57;;;17.40;63.10;;;;;;10433455;28;20273;-71
2022/01/22 22:42:48;;;;;;;1.30;0.60;;;17.50;63.20;;;;;;10425881;28;1057915;-70
2022/01/22 22:48:10;;;;;;;1.23;0.60;;;17.50;63.10;;;;;;10458004;28;20209;-70
2022/01/22 22:53:34;;;;;;;0.90;0.50;;;17.40;63.10;;;;;;10458198;28;20221;-70
2022/01/22 22:58:56;;;;;;;1.10;0.60;;;17.40;63.10;;;;;;10470963;28;20193;-71
2022/01/22 23:04:18;;;;;;;1.33;0.60;;;17.40;63.10;;;;;;10458630;28;20244;-71
2022/01/22 23:09:42;;;;;;;0.83;0.70;;;17.40;63.10;;;;;;10468190;28;20205;-71
2022/01/22 23:15:06;;;;;;;1.00;0.50;;;17.40;63.10;;;;;;10478769;28;20212;-71
2022/01/22 23:26:09;;;;;;;0.40;0.40;;;17.40;63.10;;;;;;10460019;28;20277;-70
2022/01/22 23:31:35;;;;;;;0.60;0.50;;;17.40;63.20;;;;;;10470782;28;20220;-71
2022/01/22 23:54:12;;;;;;;0.40;0.40;;;17.40;63.20;;;;;;10462755;28;20296;-68
2022/01/22 23:59:39;;;;;;;0.70;0.40;;;17.40;63.20;;;;;;10454529;28;20204;-67
